Time;durP1;ratioP1;P1;durP2;ratioP2;P2;SDS_P1;SDS_P2;PMS_P1;PMS_P2;Temp;Humidity;BMP_temperature;BMP_pressure;BME280_temperature;BME280_humidity;BME280_pressure;Samples;Min_cycle;Max_cycle;Signal;HPM_P1;HPM_P2
2021/12/01 00:00:50;;;;;;;2.75;1.65;;;20.40;46.80;;;;;;5022447;28;20045;-60
2021/12/01 00:03:16;;;;;;;3.15;1.80;;;20.40;46.80;;;;;;5028788;28;20026;-60
2021/12/01 00:05:42;;;;;;;3.20;1.73;;;20.40;46.80;;;;;;5024301;28;20460;-59
2021/12/01 00:08:08;;;;;;;3.63;1.70;;;20.40;46.90;;;;;;5026797;28;20029;-60
2021/12/01 00:10:36;;;;;;;2.90;1.60;;;20.40;46.80;;;;;;5021149;28;20190;-60
2021/12/01 00:13:04;;;;;;;3.00;1.70;;;20.30;46.80;;;;;;5023090;28;20494;-58
2021/12/01 00:15:30;;;;;;;2.65;1.70;;;20.30;46.80;;;;;;5025786;28;20025;-58
2021/12/01 00:17:56;;;;;;;3.28;1.80;;;20.30;46.80;;;;;;5026511;28;20033;-61
2021/12/01 00:20:21;;;;;;;2.95;1.63;;;20.30;46.80;;;;;;5021898;28;20040;-58
2021/12/01 00:22:48;;;;;;;2.58;1.58;;;20.30;46.80;;;;;;5027231;28;20033;-61
2021/12/01 00:25:17;;;;;;;3.28;1.50;;;20.30;46.80;;;;;;5018796;28;20028;-58
2021/12/01 00:27:44;;;;;;;;;;;20.30;46.80;;;;;;5024832;28;20064;-60
2021/12/01 00:30:13;;;;;;;2.95;1.58;;;20.30;46.80;;;;;;5021828;28;20393;-58
2021/12/01 00:32:48;;;;;;;2.55;1.30;;;20.30;46.90;;;;;;5024138;28;20037;-58
2021/12/01 00:35:14;;;;;;;2.25;1.50;;;20.30;46.90;;;;;;5022748;28;20418;-59
2021/12/01 00:37:43;;;;;;;2.75;1.42;;;20.30;46.90;;;;;;5027233;28;20116;-61
2021/12/01 00:40:11;;;;;;;2.83;1.50;;;20.20;46.80;;;;;;5023492;28;20044;-58
2021/12/01 00:42:38;;;;;;;2.88;1.40;;;20.20;46.80;;;;;;5023125;28;20037;-57
2021/12/01 00:45:15;;;;;;;2.75;1.65;;;20.20;46.90;;;;;;5023554;28;20033;-62
2021/12/01 00:47:45;;;;;;;2.55;1.35;;;20.20;46.90;;;;;;5023226;28;20036;-59
2021/12/01 00:50:14;;;;;;;2.88;1.50;;;20.20;46.90;;;;;;5022259;28;20022;-60
2021/12/01 00:52:40;;;;;;;2.50;1.40;;;20.20;46.90;;;;;;5029372;28;20055;-61
2021/12/01 00:55:06;;;;;;;2.63;1.58;;;20.20;46.90;;;;;;5021340;28;20034;-60
2021/12/01 00:57:32;;;;;;;2.70;1.40;;;20.20;46.90;;;;;;5021881;28;20031;-58
2021/12/01 01:00:04;;;;;;;3.38;1.50;;;20.10;46.80;;;;;;5023928;28;20037;-58
2021/12/01 01:02:29;;;;;;;2.67;1.60;;;20.10;46.80;;;;;;5023759;28;20034;-60
2021/12/01 01:04:55;;;;;;;3.30;1.40;;;20.10;46.80;;;;;;5022752;28;20124;-60
2021/12/01 01:07:23;;;;;;;3.28;1.60;;;20.10;46.80;;;;;;5028427;28;20553;-58
2021/12/01 01:09:48;;;;;;;3.08;1.50;;;20.10;46.80;;;;;;5025361;28;20108;-60
2021/12/01 01:17:52;;;;;;;2.13;1.23;;;20.10;46.80;;;;;;5025220;28;20087;-59
2021/12/01 01:20:21;;;;;;;2.15;1.33;;;20.00;46.80;;;;;;5029926;28;20040;-60
2021/12/01 01:22:47;;;;;;;2.00;1.27;;;20.00;46.80;;;;;;5028682;28;20026;-58
2021/12/01 01:25:12;;;;;;;2.20;1.20;;;20.00;46.80;;;;;;5025537;28;20053;-59
2021/12/01 01:27:38;;;;;;;2.67;1.50;;;20.00;46.80;;;;;;5027235;28;20190;-59
2021/12/01 01:30:05;;;;;;;2.25;1.23;;;20.00;46.80;;;;;;5025483;28;20025;-60
2021/12/01 01:32:35;;;;;;;2.65;1.40;;;20.00;46.80;;;;;;5023287;28;20081;-57
2021/12/01 01:35:01;;;;;;;2.30;1.30;;;20.00;46.80;;;;;;5023617;28;20496;-59
2021/12/01 01:37:27;;;;;;;2.72;1.45;;;20.00;46.70;;;;;;5027024;28;20094;-59
2021/12/01 01:39:52;;;;;;;2.28;1.10;;;19.90;46.70;;;;;;5022551;28;20026;-60
2021/12/01 01:42:18;;;;;;;2.63;1.25;;;20.00;46.80;;;;;;5028250;28;20095;-61
2021/12/01 01:44:44;;;;;;;2.03;1.17;;;19.90;46.70;;;;;;5028781;28;20073;-60
2021/12/01 01:47:11;;;;;;;1.90;1.20;;;19.90;46.70;;;;;;5027131;28;20068;-59
2021/12/01 01:50:00;;;;;;;1.80;1.10;;;19.90;46.70;;;;;;5027262;28;20044;-59
2021/12/01 01:52:27;;;;;;;2.08;1.27;;;19.90;46.70;;;;;;5030683;28;20026;-59
2021/12/01 01:54:53;;;;;;;2.53;1.35;;;19.90;46.70;;;;;;5023441;28;20064;-57
2021/12/01 01:57:20;;;;;;;2.22;1.30;;;19.90;46.70;;;;;;5028181;28;20056;-62
2021/12/01 01:59:46;;;;;;;2.28;1.20;;;19.90;46.70;;;;;;5027131;28;20046;-62
2021/12/01 02:02:12;;;;;;;2.80;1.35;;;19.90;46.70;;;;;;5027603;28;20045;-59
2021/12/01 02:04:38;;;;;;;3.05;1.17;;;19.90;46.70;;;;;;5026341;28;20060;-59
2021/12/01 02:07:04;;;;;;;1.95;1.20;;;19.90;46.70;;;;;;5028227;28;20568;-59
2021/12/01 02:09:30;;;;;;;1.88;1.05;;;19.90;46.70;;;;;;5027685;28;20128;-58
2021/12/01 02:11:59;;;;;;;1.63;1.10;;;19.90;46.60;;;;;;5026521;28;20037;-58
2021/12/01 02:14:27;;;;;;;2.13;1.30;;;19.80;46.70;;;;;;5025956;28;20080;-60
2021/12/01 02:16:54;;;;;;;1.90;1.10;;;19.90;46.70;;;;;;5027087;28;20036;-59
2021/12/01 02:19:20;;;;;;;1.70;0.90;;;19.80;46.70;;;;;;5023670;28;20726;-55
2021/12/01 02:21:46;;;;;;;1.65;1.10;;;19.80;46.70;;;;;;5027171;28;20204;-59
2021/12/01 02:24:14;;;;;;;1.85;1.10;;;19.80;47.20;;;;;;5024480;28;20029;-60
2021/12/01 02:26:46;;;;;;;2.15;1.15;;;19.80;46.70;;;;;;5026214;28;20091;-61
2021/12/01 02:29:15;;;;;;;2.22;1.15;;;19.80;46.70;;;;;;5026508;28;20030;-59
2021/12/01 02:31:43;;;;;;;2.00;1.13;;;19.80;46.70;;;;;;5025638;28;20156;-59
2021/12/01 02:34:16;;;;;;;1.85;1.10;;;19.80;46.70;;;;;;5025783;28;20385;-57
2021/12/01 02:36:44;;;;;;;1.70;1.00;;;19.80;46.70;;;;;;5026984;28;20160;-60
2021/12/01 02:39:13;;;;;;;1.67;1.05;;;19.80;46.70;;;;;;5027726;28;20033;-59
2021/12/01 02:41:39;;;;;;;1.42;1.10;;;19.70;46.70;;;;;;5021447;28;20041;-61
2021/12/01 02:44:07;;;;;;;1.30;0.93;;;19.70;46.60;;;;;;5027771;28;20068;-59
2021/12/01 02:46:34;;;;;;;1.85;1.00;;;19.70;46.70;;;;;;5024392;28;20641;-59
2021/12/01 02:49:00;;;;;;;2.13;1.20;;;19.70;46.70;;;;;;5026492;28;20033;-59
2021/12/01 02:51:31;;;;;;;1.65;1.00;;;19.70;46.70;;;;;;5025483;28;20017;-61
2021/12/01 02:53:58;;;;;;;1.83;1.08;;;19.70;46.70;;;;;;5027000;28;20033;-60
2021/12/01 02:56:24;;;;;;;1.25;0.85;;;19.70;46.70;;;;;;5023012;28;20024;-57
2021/12/01 02:58:50;;;;;;;1.77;1.02;;;19.70;46.70;;;;;;5022816;28;20025;-57
2021/12/01 03:01:19;;;;;;;1.50;1.00;;;19.70;46.70;;;;;;5025572;28;20034;-60
2021/12/01 03:03:46;;;;;;;2.05;1.00;;;19.70;46.70;;;;;;5024909;28;20017;-60
2021/12/01 03:06:12;;;;;;;1.42;0.95;;;19.70;46.70;;;;;;5021508;28;20052;-59
2021/12/01 03:08:41;;;;;;;1.20;0.80;;;19.60;46.70;;;;;;5028652;28;20032;-59
2021/12/01 03:11:07;;;;;;;1.38;0.90;;;19.70;46.70;;;;;;5024906;28;20128;-60
2021/12/01 03:13:33;;;;;;;1.00;0.73;;;19.60;46.70;;;;;;5025795;28;20132;-59
2021/12/01 03:16:00;;;;;;;1.58;0.88;;;19.60;47.20;;;;;;5024735;28;20488;-60
2021/12/01 03:18:25;;;;;;;1.25;0.90;;;19.60;46.70;;;;;;5028154;28;20462;-59
2021/12/01 03:20:53;;;;;;;1.88;1.00;;;19.60;46.70;;;;;;5025776;28;20040;-58
2021/12/01 03:23:20;;;;;;;1.58;0.93;;;19.60;46.70;;;;;;5028657;28;20517;-60
2021/12/01 03:25:47;;;;;;;1.52;1.00;;;19.60;46.70;;;;;;5023721;28;20095;-58
2021/12/01 03:28:13;;;;;;;1.35;0.90;;;19.60;46.70;;;;;;5023743;28;22040;-60
2021/12/01 03:30:40;;;;;;;1.70;1.10;;;19.60;46.80;;;;;;5024187;28;20038;-60
2021/12/01 03:33:09;;;;;;;1.27;0.90;;;19.60;46.70;;;;;;5027535;28;20117;-58
2021/12/01 03:35:38;;;;;;;2.13;1.05;;;19.60;46.80;;;;;;5022610;28;20087;-59
2021/12/01 03:38:04;;;;;;;1.88;1.00;;;19.60;46.80;;;;;;5026848;28;20044;-62
2021/12/01 03:40:29;;;;;;;1.27;0.90;;;19.60;46.80;;;;;;5019489;28;20039;-59
2021/12/01 03:42:55;;;;;;;1.25;0.80;;;19.60;46.80;;;;;;5025593;28;20033;-57
2021/12/01 03:45:21;;;;;;;1.38;0.95;;;19.60;46.80;;;;;;5025820;28;20026;-60
2021/12/01 03:47:46;;;;;;;1.25;0.85;;;19.60;46.80;;;;;;5029347;28;20044;-59
2021/12/01 03:50:12;;;;;;;1.35;0.90;;;19.60;46.80;;;;;;5024790;28;20021;-59
2021/12/01 03:52:39;;;;;;;1.60;0.90;;;19.50;46.70;;;;;;5029758;28;20560;-59
2021/12/01 03:55:06;;;;;;;1.60;1.00;;;19.50;46.70;;;;;;5023278;28;20183;-58
2021/12/01 03:57:31;;;;;;;1.27;0.82;;;19.50;46.70;;;;;;5024230;28;20030;-61
2021/12/01 03:59:57;;;;;;;1.73;0.93;;;19.50;47.30;;;;;;5022658;28;20108;-61
2021/12/01 04:02:23;;;;;;;1.73;0.90;;;19.50;46.80;;;;;;5027700;28;20038;-59
2021/12/01 04:04:49;;;;;;;1.13;0.82;;;19.50;46.80;;;;;;5024167;28;20044;-59
2021/12/01 04:07:15;;;;;;;1.50;0.85;;;19.50;46.80;;;;;;5025936;28;20088;-56
2021/12/01 04:09:43;;;;;;;1.33;0.88;;;19.50;46.80;;;;;;5026364;28;20021;-59
2021/12/01 04:12:08;;;;;;;1.63;0.90;;;19.50;46.80;;;;;;5023255;28;20108;-58
2021/12/01 04:14:34;;;;;;;1.20;0.88;;;19.50;46.80;;;;;;5026130;28;20108;-59
2021/12/01 04:17:00;;;;;;;1.27;0.80;;;19.50;46.80;;;;;;5029156;28;20377;-59
2021/12/01 04:19:25;;;;;;;1.33;0.90;;;19.50;46.80;;;;;;5022154;28;20174;-58
2021/12/01 04:21:51;;;;;;;1.73;1.00;;;19.40;46.80;;;;;;5017550;28;20645;-59
2021/12/01 04:24:17;;;;;;;1.35;0.90;;;19.40;46.80;;;;;;5017510;28;20112;-57
2021/12/01 04:26:43;;;;;;;1.80;0.90;;;19.40;46.80;;;;;;5023387;28;20067;-58
2021/12/01 04:29:09;;;;;;;1.38;0.80;;;19.40;46.80;;;;;;5023577;28;20052;-59
2021/12/01 04:31:37;;;;;;;1.40;0.75;;;19.40;46.80;;;;;;5024639;28;20042;-59
2021/12/01 04:34:03;;;;;;;1.02;0.70;;;19.40;46.80;;;;;;5022920;28;20070;-59
2021/12/01 04:36:36;;;;;;;1.58;0.90;;;19.40;46.90;;;;;;5024794;28;20156;-61
2021/12/01 04:39:07;;;;;;;0.73;0.60;;;19.40;46.80;;;;;;5021634;28;20033;-61
2021/12/01 04:41:38;;;;;;;1.13;0.70;;;19.40;46.90;;;;;;5018900;28;20418;-58
2021/12/01 04:44:09;;;;;;;2.08;0.90;;;19.40;47.40;;;;;;5024443;28;20128;-59
2021/12/01 04:46:41;;;;;;;1.17;0.70;;;19.40;46.80;;;;;;5024240;28;20112;-58
2021/12/01 04:49:08;;;;;;;1.27;0.70;;;19.40;46.80;;;;;;5025098;28;20024;-56
2021/12/01 04:51:34;;;;;;;1.30;0.77;;;19.40;46.90;;;;;;5025378;28;20022;-60
2021/12/01 04:54:02;;;;;;;1.05;0.70;;;19.40;46.90;;;;;;5023333;28;20112;-56
2021/12/01 04:56:28;;;;;;;1.83;0.77;;;19.30;46.80;;;;;;5022987;28;20037;-59
2021/12/01 04:58:53;;;;;;;1.55;0.80;;;19.30;46.80;;;;;;5028806;28;20036;-59
2021/12/01 05:01:19;;;;;;;0.93;0.70;;;19.30;46.80;;;;;;5023051;28;20128;-58
2021/12/01 05:03:45;;;;;;;1.15;0.90;;;19.30;46.80;;;;;;5022778;28;20033;-56
2021/12/01 05:06:15;;;;;;;1.10;0.68;;;19.30;46.80;;;;;;5023175;28;20577;-58
2021/12/01 05:08:41;;;;;;;1.30;0.80;;;19.30;46.80;;;;;;5025270;28;20434;-59
2021/12/01 05:11:07;;;;;;;1.38;0.70;;;19.30;46.80;;;;;;5021968;28;20052;-59
2021/12/01 05:13:33;;;;;;;0.98;0.70;;;19.30;46.80;;;;;;5021783;28;20443;-58
2021/12/01 05:15:58;;;;;;;1.17;0.70;;;19.30;46.80;;;;;;5023294;28;20038;-62
2021/12/01 05:18:24;;;;;;;1.08;0.70;;;19.30;46.90;;;;;;5027475;28;20504;-59
2021/12/01 05:20:50;;;;;;;0.90;0.70;;;19.30;46.80;;;;;;5022695;28;20803;-59
2021/12/01 05:23:15;;;;;;;1.13;0.82;;;19.30;46.90;;;;;;5026249;28;20041;-60
2021/12/01 05:25:45;;;;;;;0.90;0.70;;;19.30;46.90;;;;;;5019747;28;20025;-56
2021/12/01 05:28:11;;;;;;;0.77;0.70;;;19.30;46.90;;;;;;5025315;28;20051;-59
2021/12/01 05:30:37;;;;;;;0.82;0.60;;;19.30;46.80;;;;;;5023281;28;20444;-61
2021/12/01 05:33:08;;;;;;;1.20;0.70;;;19.30;46.90;;;;;;5022024;28;20113;-59
2021/12/01 05:35:35;;;;;;;1.05;0.75;;;19.30;46.80;;;;;;5023802;28;20056;-62
2021/12/01 05:38:02;;;;;;;0.70;0.60;;;19.30;47.40;;;;;;5023605;28;20037;-62
2021/12/01 05:40:28;;;;;;;0.85;0.60;;;19.20;46.80;;;;;;5021684;28;20043;-61
2021/12/01 05:42:53;;;;;;;1.13;0.65;;;19.20;46.80;;;;;;5021846;28;22064;-60
2021/12/01 05:45:19;;;;;;;0.95;0.60;;;19.20;46.80;;;;;;5022665;28;20037;-59
2021/12/01 05:47:45;;;;;;;0.90;0.68;;;19.20;46.80;;;;;;5024981;28;20132;-59
2021/12/01 05:50:11;;;;;;;0.73;0.60;;;19.20;46.80;;;;;;5024227;28;20124;-60
2021/12/01 05:52:37;;;;;;;1.17;0.70;;;19.20;46.80;;;;;;5033089;28;20017;-60
2021/12/01 05:55:04;;;;;;;0.60;0.55;;;19.20;46.80;;;;;;5024894;28;20040;-62
2021/12/01 05:57:29;;;;;;;0.93;0.60;;;19.20;46.80;;;;;;5024631;28;20029;-59
2021/12/01 05:59:55;;;;;;;1.17;0.70;;;19.20;46.80;;;;;;5024128;28;20032;-59
2021/12/01 06:02:21;;;;;;;0.65;0.60;;;19.20;46.80;;;;;;5026012;28;20080;-60
2021/12/01 06:04:47;;;;;;;0.82;0.60;;;19.20;46.80;;;;;;5023940;28;20025;-63
2021/12/01 06:07:13;;;;;;;0.70;0.55;;;19.20;46.70;;;;;;5028372;28;20022;-59
2021/12/01 06:09:39;;;;;;;1.10;0.70;;;19.20;46.80;;;;;;5023805;28;20033;-60
2021/12/01 06:12:06;;;;;;;0.68;0.57;;;19.20;46.70;;;;;;5027238;28;20033;-60
2021/12/01 06:14:33;;;;;;;1.00;0.68;;;19.20;46.70;;;;;;5028044;28;20033;-63
2021/12/01 06:16:59;;;;;;;0.82;0.70;;;19.20;46.70;;;;;;5028606;28;20033;-63
2021/12/01 06:19:25;;;;;;;0.70;0.60;;;19.10;46.70;;;;;;5027217;28;20025;-59
2021/12/01 06:21:50;;;;;;;0.70;0.60;;;19.10;46.60;;;;;;5027641;28;20032;-60
2021/12/01 06:24:16;;;;;;;0.90;0.60;;;19.10;46.70;;;;;;5024752;28;20453;-59
2021/12/01 06:26:42;;;;;;;1.23;0.80;;;19.10;46.80;;;;;;5027494;28;20032;-59
2021/12/01 06:29:07;;;;;;;1.77;0.80;;;19.20;47.60;;;;;;5024109;28;20029;-59
2021/12/01 06:31:33;;;;;;;1.00;0.68;;;19.60;47.70;;;;;;5028848;28;20482;-57
2021/12/01 06:33:59;;;;;;;1.08;0.70;;;20.20;47.10;;;;;;5034687;28;20049;-59
2021/12/01 06:36:26;;;;;;;0.65;0.55;;;20.80;46.40;;;;;;5036408;28;20060;-60
2021/12/01 06:38:52;;;;;;;1.15;0.60;;;21.30;45.70;;;;;;5036739;28;20052;-61
2021/12/01 06:41:17;;;;;;;1.13;0.60;;;21.70;45.00;;;;;;5036735;28;20041;-60
2021/12/01 06:43:43;;;;;;;0.65;0.52;;;21.90;45.20;;;;;;5036018;28;20029;-60
2021/12/01 06:46:09;;;;;;;0.70;0.60;;;21.80;45.50;;;;;;5031305;28;20036;-59
2021/12/01 06:48:35;;;;;;;0.57;0.50;;;21.70;46.00;;;;;;5027332;28;20033;-60
2021/12/01 06:51:01;;;;;;;0.80;0.50;;;21.70;46.30;;;;;;5023589;28;20527;-59
2021/12/01 06:53:27;;;;;;;0.60;0.52;;;21.60;46.40;;;;;;5030947;28;20103;-60
2021/12/01 06:55:53;;;;;;;0.60;0.60;;;21.60;46.60;;;;;;5027171;28;20044;-60
2021/12/01 06:58:19;;;;;;;1.00;0.60;;;21.70;46.70;;;;;;5025748;28;20036;-58
2021/12/01 07:00:45;;;;;;;0.40;0.40;;;21.80;46.60;;;;;;5035509;28;20033;-60
2021/12/01 07:03:11;;;;;;;0.40;0.40;;;21.90;46.60;;;;;;5024241;28;20076;-59
2021/12/01 07:05:37;;;;;;;0.38;0.35;;;21.90;46.70;;;;;;5028464;28;20037;-57
2021/12/01 07:08:04;;;;;;;0.40;0.40;;;21.80;46.90;;;;;;5029486;28;20137;-60
2021/12/01 07:10:29;;;;;;;0.40;0.40;;;21.70;47.00;;;;;;5020378;28;20072;-60
2021/12/01 07:12:55;;;;;;;0.65;0.52;;;21.70;47.10;;;;;;5026666;28;20034;-60
2021/12/01 07:15:21;;;;;;;0.57;0.50;;;21.60;47.20;;;;;;5033295;28;20049;-62
2021/12/01 07:17:47;;;;;;;0.57;0.45;;;21.60;47.20;;;;;;5025234;28;20112;-57
2021/12/01 07:20:13;;;;;;;0.60;0.50;;;21.60;47.20;;;;;;5028926;28;20482;-60
2021/12/01 07:22:41;;;;;;;0.40;0.40;;;21.60;47.20;;;;;;5021776;28;20033;-62
2021/12/01 07:25:07;;;;;;;0.60;0.50;;;21.50;47.20;;;;;;5021755;28;20090;-60
2021/12/01 07:27:33;;;;;;;0.68;0.43;;;21.60;47.40;;;;;;5023974;28;20041;-58
2021/12/01 07:29:59;;;;;;;0.50;0.40;;;21.60;47.20;;;;;;5030751;28;20453;-60
2021/12/01 07:32:25;;;;;;;0.43;0.43;;;21.80;47.80;;;;;;5025744;28;20052;-59
2021/12/01 07:34:51;;;;;;;0.50;0.45;;;22.10;47.40;;;;;;5024338;28;20127;-59
2021/12/01 07:37:18;;;;;;;0.68;0.50;;;22.10;46.90;;;;;;5026232;28;20032;-60
2021/12/01 07:39:45;;;;;;;0.30;0.30;;;22.10;47.00;;;;;;5024046;28;20175;-59
2021/12/01 07:42:13;;;;;;;0.50;0.40;;;22.10;47.20;;;;;;5023989;28;20413;-59
2021/12/01 07:44:39;;;;;;;0.43;0.40;;;22.00;47.30;;;;;;5024755;28;20117;-59
2021/12/01 07:47:05;;;;;;;0.40;0.40;;;22.00;47.40;;;;;;5026972;28;20112;-60
2021/12/01 07:49:30;;;;;;;0.55;0.43;;;22.00;47.60;;;;;;5022949;28;20057;-58
2021/12/01 07:51:56;;;;;;;0.50;0.50;;;22.00;47.60;;;;;;5023502;28;20126;-60
2021/12/01 07:54:22;;;;;;;0.65;0.40;;;22.00;47.90;;;;;;5023671;28;20091;-59
2021/12/01 07:56:47;;;;;;;0.30;0.30;;;22.00;48.00;;;;;;5026652;28;20168;-62
2021/12/01 07:59:15;;;;;;;0.40;0.40;;;22.00;48.00;;;;;;5024297;28;20029;-59
2021/12/01 08:01:45;;;;;;;0.43;0.43;;;22.00;48.00;;;;;;5028318;28;20394;-62
2021/12/01 08:04:11;;;;;;;0.30;0.30;;;22.00;48.30;;;;;;5026267;28;20053;-60
2021/12/01 08:06:38;;;;;;;0.50;0.45;;;22.00;48.40;;;;;;5023058;28;21749;-59
2021/12/01 08:09:05;;;;;;;0.45;0.30;;;22.00;48.40;;;;;;5023319;28;20365;-62
2021/12/01 08:11:32;;;;;;;0.40;0.40;;;22.00;48.60;;;;;;5021158;28;20057;-59
2021/12/01 08:13:58;;;;;;;1.13;0.50;;;22.10;48.80;;;;;;5027125;28;20095;-60
2021/12/01 08:16:24;;;;;;;0.65;0.47;;;22.10;48.80;;;;;;5027468;28;20734;-59
2021/12/01 08:18:56;;;;;;;0.43;0.40;;;22.10;49.10;;;;;;5025396;28;20036;-62
2021/12/01 08:21:23;;;;;;;0.30;0.30;;;22.10;49.00;;;;;;5025373;28;20022;-60
2021/12/01 08:23:49;;;;;;;0.38;0.38;;;22.10;49.50;;;;;;5024877;28;20555;-62
2021/12/01 08:26:15;;;;;;;0.50;0.50;;;22.20;49.60;;;;;;5022728;28;20378;-60
2021/12/01 08:28:42;;;;;;;0.40;0.40;;;22.20;49.60;;;;;;5025184;28;20519;-60
2021/12/01 08:31:08;;;;;;;0.45;0.43;;;22.20;49.60;;;;;;5023738;28;20040;-59
2021/12/01 08:33:34;;;;;;;0.40;0.40;;;22.20;49.70;;;;;;5025114;28;20029;-60
2021/12/01 08:35:59;;;;;;;0.30;0.30;;;22.20;49.60;;;;;;5021774;28;20030;-61
2021/12/01 08:38:25;;;;;;;0.40;0.30;;;22.20;49.50;;;;;;5024715;28;20611;-62
2021/12/01 08:40:54;;;;;;;0.40;0.40;;;22.30;49.40;;;;;;5023981;28;20056;-59
2021/12/01 08:43:19;;;;;;;0.50;0.30;;;22.20;49.50;;;;;;5023527;28;20060;-62
2021/12/01 08:45:45;;;;;;;0.30;0.30;;;22.20;49.40;;;;;;5024605;28;20069;-61
2021/12/01 08:48:11;;;;;;;0.38;0.38;;;22.30;49.20;;;;;;5027043;28;20064;-61
2021/12/01 08:50:37;;;;;;;0.30;0.30;;;22.30;49.10;;;;;;5017526;28;20021;-60
2021/12/01 08:53:02;;;;;;;0.40;0.40;;;22.30;49.20;;;;;;5023769;28;20041;-59
2021/12/01 08:55:28;;;;;;;0.45;0.30;;;22.30;49.20;;;;;;5025666;28;20037;-59
2021/12/01 08:57:54;;;;;;;0.47;0.40;;;22.30;49.20;;;;;;5023779;28;20454;-58
2021/12/01 09:00:22;;;;;;;0.60;0.50;;;22.40;49.30;;;;;;5026528;28;20112;-59
2021/12/01 09:02:47;;;;;;;0.35;0.35;;;22.40;49.30;;;;;;5022373;28;20026;-61
2021/12/01 09:05:13;;;;;;;0.40;0.40;;;22.40;49.30;;;;;;5022775;28;20747;-59
2021/12/01 09:07:39;;;;;;;0.50;0.50;;;22.50;49.40;;;;;;5025697;28;20732;-59
2021/12/01 09:10:05;;;;;;;3.45;0.43;;;22.50;49.50;;;;;;5025289;28;20044;-57
2021/12/01 09:12:32;;;;;;;0.40;0.40;;;22.60;49.50;;;;;;5024112;28;20477;-56
2021/12/01 09:14:57;;;;;;;0.30;0.30;;;22.60;49.50;;;;;;5024357;28;20049;-59
2021/12/01 09:17:24;;;;;;;1.77;0.43;;;22.60;49.00;;;;;;5024595;28;20077;-59
2021/12/01 09:19:51;;;;;;;0.30;0.30;;;22.60;49.20;;;;;;5022476;28;20128;-60
2021/12/01 09:22:17;;;;;;;0.45;0.40;;;22.60;49.20;;;;;;5025371;28;20052;-59
2021/12/01 09:24:44;;;;;;;0.40;0.40;;;22.70;49.30;;;;;;5021671;28;20038;-62
2021/12/01 09:27:10;;;;;;;0.47;0.40;;;22.70;49.20;;;;;;5025176;28;20112;-60
2021/12/01 09:29:36;;;;;;;1.25;0.38;;;22.70;49.40;;;;;;5029106;28;20025;-62
2021/12/01 09:32:03;;;;;;;0.70;0.32;;;22.80;49.50;;;;;;5024806;28;20057;-60
2021/12/01 09:34:29;;;;;;;0.55;0.40;;;22.70;49.40;;;;;;5027609;28;20032;-59
2021/12/01 09:36:56;;;;;;;1.05;0.50;;;22.80;49.70;;;;;;5029388;28;20029;-58
2021/12/01 09:39:23;;;;;;;1.08;0.50;;;22.80;49.50;;;;;;5027794;28;20171;-60
2021/12/01 09:41:49;;;;;;;0.30;0.30;;;22.80;49.40;;;;;;5021268;28;20029;-59
2021/12/01 09:44:15;;;;;;;2.00;0.40;;;22.80;49.40;;;;;;5033383;28;20041;-60
2021/12/01 09:46:41;;;;;;;0.73;0.30;;;22.90;49.80;;;;;;5029479;28;20080;-61
2021/12/01 09:49:07;;;;;;;0.25;0.25;;;22.90;50.10;;;;;;5026770;28;20028;-60
2021/12/01 09:51:33;;;;;;;0.75;0.40;;;22.90;50.00;;;;;;5028799;28;20029;-61
2021/12/01 09:54:01;;;;;;;0.82;0.40;;;22.90;49.90;;;;;;5026825;28;20851;-62
2021/12/01 09:56:28;;;;;;;0.88;0.40;;;22.90;50.00;;;;;;5026992;28;20143;-61
2021/12/01 09:58:53;;;;;;;2.40;0.40;;;23.00;49.90;;;;;;5026682;28;20025;-59
2021/12/01 10:01:22;;;;;;;0.35;0.35;;;23.00;49.90;;;;;;5023607;28;20327;-60
2021/12/01 10:03:48;;;;;;;0.45;0.40;;;23.00;49.90;;;;;;5027702;28;20040;-59
2021/12/01 10:06:17;;;;;;;1.55;0.40;;;23.00;50.00;;;;;;5028581;28;20034;-59
2021/12/01 10:09:07;;;;;;;0.40;0.35;;;23.00;50.20;;;;;;5025427;28;20112;-60
2021/12/01 10:11:41;;;;;;;0.93;0.40;;;23.00;50.00;;;;;;5024964;28;20033;-61
2021/12/01 10:14:14;;;;;;;0.22;0.22;;;23.00;50.00;;;;;;5029717;28;20362;-60
2021/12/01 10:16:44;;;;;;;0.75;0.40;;;23.00;49.90;;;;;;5018932;28;20021;-60
2021/12/01 10:19:12;;;;;;;0.38;0.32;;;23.10;50.10;;;;;;5020877;28;20030;-61
2021/12/01 10:21:40;;;;;;;0.70;0.40;;;23.10;49.90;;;;;;5015236;28;20107;-60
2021/12/01 10:24:08;;;;;;;0.68;0.40;;;23.10;50.10;;;;;;5021370;28;20779;-60
2021/12/01 10:26:40;;;;;;;0.50;0.30;;;23.10;49.80;;;;;;5023167;28;20029;-60
2021/12/01 10:29:12;;;;;;;0.77;0.40;;;23.10;49.80;;;;;;5023268;28;20033;-59
2021/12/01 10:31:42;;;;;;;0.38;0.30;;;23.10;49.70;;;;;;5025298;28;20049;-60
2021/12/01 10:34:26;;;;;;;0.80;0.30;;;23.20;49.70;;;;;;5023478;28;20037;-62
2021/12/01 10:37:13;;;;;;;0.70;0.30;;;23.20;49.60;;;;;;5025187;28;20033;-59
2021/12/01 10:39:43;;;;;;;0.45;0.40;;;23.20;49.60;;;;;;5022761;28;20571;-59
2021/12/01 10:42:17;;;;;;;0.55;0.30;;;23.20;49.60;;;;;;5021999;28;20142;-61
2021/12/01 10:45:03;;;;;;;0.50;0.30;;;23.20;49.50;;;;;;5023588;28;20086;-61
2021/12/01 10:47:43;;;;;;;0.20;0.20;;;23.20;49.40;;;;;;5024306;28;20045;-58
2021/12/01 10:50:11;;;;;;;0.73;0.40;;;23.20;49.70;;;;;;5024448;28;20661;-60
2021/12/01 10:52:42;;;;;;;0.73;0.40;;;23.30;49.50;;;;;;5023024;28;20026;-61
2021/12/01 10:55:16;;;;;;;2.10;0.50;;;23.20;49.40;;;;;;5019720;28;20497;-62
2021/12/01 10:57:49;;;;;;;0.73;0.50;;;23.20;49.20;;;;;;5024159;28;20029;-62
2021/12/01 11:00:24;;;;;;;1.73;0.40;;;23.30;49.40;;;;;;5021894;28;20053;-60
2021/12/01 11:02:50;;;;;;;0.77;0.38;;;23.30;49.40;;;;;;5019169;28;20026;-59
2021/12/01 11:05:31;;;;;;;0.30;0.30;;;23.30;49.50;;;;;;5027665;28;20037;-58
2021/12/01 11:08:08;;;;;;;0.68;0.30;;;23.30;49.40;;;;;;5026717;28;20038;-59
2021/12/01 11:10:35;;;;;;;1.05;0.40;;;23.30;49.40;;;;;;5024916;28;20025;-61
2021/12/01 11:13:02;;;;;;;0.52;0.30;;;23.30;49.60;;;;;;5026631;28;20044;-61
2021/12/01 11:15:30;;;;;;;1.90;0.30;;;23.30;49.40;;;;;;5022571;28;20095;-62
2021/12/01 11:17:57;;;;;;;0.40;0.30;;;23.40;49.40;;;;;;5027022;28;20918;-62
2021/12/01 11:20:38;;;;;;;0.20;0.20;;;23.40;49.30;;;;;;5025528;28;20116;-59
2021/12/01 11:23:17;;;;;;;0.35;0.30;;;23.40;49.30;;;;;;5022956;28;20029;-61
2021/12/01 11:25:52;;;;;;;0.40;0.28;;;23.40;49.20;;;;;;5022454;28;20163;-60
2021/12/01 11:28:20;;;;;;;0.30;0.30;;;23.40;49.10;;;;;;5023528;28;20112;-59
2021/12/01 11:30:49;;;;;;;1.23;0.40;;;23.40;49.10;;;;;;5020965;28;20038;-58
2021/12/01 11:33:17;;;;;;;0.30;0.30;;;23.40;49.20;;;;;;5026391;28;20028;-59
2021/12/01 11:35:44;;;;;;;0.25;0.25;;;23.50;49.20;;;;;;5022237;28;20021;-58
2021/12/01 11:38:11;;;;;;;0.20;0.20;;;23.50;49.10;;;;;;5025801;28;20041;-59
2021/12/01 11:40:38;;;;;;;0.47;0.40;;;23.50;49.60;;;;;;5020538;28;20779;-60
2021/12/01 11:43:05;;;;;;;0.35;0.30;;;23.50;48.90;;;;;;5026462;28;20063;-61
2021/12/01 11:45:31;;;;;;;0.38;0.30;;;23.50;48.90;;;;;;5020060;28;20140;-62
2021/12/01 11:47:58;;;;;;;0.40;0.40;;;23.50;48.80;;;;;;5023638;28;20055;-59
2021/12/01 11:50:35;;;;;;;0.32;0.30;;;23.60;48.80;;;;;;5023684;28;20033;-60
2021/12/01 11:53:22;;;;;;;0.40;0.40;;;23.60;48.90;;;;;;5025922;28;20026;-62
2021/12/01 11:55:56;;;;;;;0.30;0.30;;;23.60;48.90;;;;;;5019172;28;20090;-59
2021/12/01 11:58:45;;;;;;;0.70;0.30;;;23.60;48.90;;;;;;5025097;28;20038;-60
2021/12/01 12:01:22;;;;;;;0.30;0.30;;;23.60;48.90;;;;;;5021406;28;20037;-57
2021/12/01 12:03:54;;;;;;;0.30;0.30;;;23.70;48.90;;;;;;5022684;28;20037;-58
2021/12/01 12:06:25;;;;;;;0.40;0.30;;;23.70;48.90;;;;;;5025945;28;20138;-62
2021/12/01 12:08:53;;;;;;;0.30;0.30;;;23.70;48.80;;;;;;5024606;28;20028;-60
2021/12/01 12:11:40;;;;;;;0.40;0.40;;;23.70;48.90;;;;;;5023337;28;20033;-59
2021/12/01 12:14:20;;;;;;;0.45;0.30;;;23.70;49.00;;;;;;5024858;28;20029;-60
2021/12/01 12:17:07;;;;;;;0.50;0.30;;;23.70;49.00;;;;;;5024494;28;20159;-60
2021/12/01 12:19:51;;;;;;;0.40;0.30;;;23.70;49.60;;;;;;5024961;28;20025;-60
2021/12/01 12:22:21;;;;;;;0.40;0.40;;;23.70;49.30;;;;;;5021446;28;20060;-58
2021/12/01 12:24:53;;;;;;;0.50;0.40;;;23.70;49.30;;;;;;5023440;28;20063;-59
2021/12/01 12:27:37;;;;;;;0.45;0.40;;;23.70;49.30;;;;;;5017787;28;20126;-59
2021/12/01 12:30:16;;;;;;;0.55;0.35;;;23.70;49.50;;;;;;5020822;28;20033;-61
2021/12/01 12:32:43;;;;;;;;;;;23.70;49.50;;;;;;5026516;28;20033;-60
2021/12/01 12:35:14;;;;;;;0.30;0.30;;;23.70;49.50;;;;;;5026505;28;19920;-60
2021/12/01 12:37:40;;;;;;;0.40;0.40;;;23.80;49.40;;;;;;5042171;28;20029;-59
2021/12/01 12:40:21;;;;;;;0.22;0.22;;;23.80;49.30;;;;;;5022169;28;20061;-59
2021/12/01 12:43:09;;;;;;;0.30;0.30;;;23.80;49.30;;;;;;5025710;28;20029;-61
2021/12/01 12:45:37;;;;;;;0.75;0.38;;;23.80;49.30;;;;;;5022569;28;20045;-59
2021/12/01 12:48:27;;;;;;;0.20;0.20;;;23.80;49.20;;;;;;5026948;28;20037;-59
2021/12/01 12:51:09;;;;;;;0.30;0.30;;;23.80;49.30;;;;;;5021907;28;20093;-59
2021/12/01 12:53:35;;;;;;;0.45;0.38;;;23.90;49.40;;;;;;5019257;28;20432;-60
2021/12/01 12:56:25;;;;;;;0.40;0.40;;;23.90;49.30;;;;;;5022773;28;20738;-60
2021/12/01 12:58:51;;;;;;;1.27;0.20;;;23.90;49.20;;;;;;5026318;28;21766;-59